Time;durP1;ratioP1;P1;durP2;ratioP2;P2;SDS_P1;SDS_P2;PMS_P1;PMS_P2;Temp;Humidity;BMP_temperature;BMP_pressure;BME280_temperature;BME280_humidity;BME280_pressure;Samples;Min_cycle;Max_cycle;Signal;HPM_P1;HPM_P2
2023/05/12 00:05:03;;;;;;;3.53;2.75;;;;;;;10.37;53.96;101843.75;10637090;27;20528;-70
2023/05/12 00:10:05;;;;;;;4.25;3.20;;;;;;;10.39;53.77;101841.59;10632220;27;20027;-69
2023/05/12 00:15:08;;;;;;;3.13;2.45;;;;;;;10.29;54.75;101847.78;10655048;27;20039;-69
2023/05/12 00:20:11;;;;;;;3.65;3.03;;;;;;;10.21;54.98;101839.94;10636813;27;20058;-69
2023/05/12 00:25:13;;;;;;;4.20;2.70;;;;;;;10.12;55.32;101841.41;10652880;27;20039;-69
2023/05/12 00:30:17;;;;;;;3.90;2.78;;;;;;;10.05;56.23;101843.47;10634208;27;20059;-69
2023/05/12 00:35:19;;;;;;;3.03;2.70;;;;;;;10.03;56.34;101848.38;10652907;27;20047;-69
2023/05/12 00:40:21;;;;;;;3.63;2.45;;;;;;;9.97;57.08;101834.59;10650059;27;20053;-69
2023/05/12 00:45:23;;;;;;;3.28;2.67;;;;;;;9.89;57.74;101837.75;10651842;27;20062;-69
2023/05/12 00:50:26;;;;;;;3.60;2.65;;;;;;;9.79;58.71;101843.03;10648702;27;20476;-69
2023/05/12 00:55:29;;;;;;;6.38;2.85;;;;;;;9.81;58.55;101840.06;10633919;27;20043;-69
2023/05/12 01:00:36;;;;;;;4.57;3.00;;;;;;;9.80;59.29;101843.88;10597295;27;20027;-69
2023/05/12 01:05:45;;;;;;;;;;;;;;;9.77;59.45;101850.69;10653232;27;20056;-69
2023/05/12 01:10:47;;;;;;;5.70;2.95;;;;;;;9.77;60.38;101850.69;10646539;27;19919;-69
2023/05/12 01:15:54;;;;;;;5.20;3.70;;;;;;;9.85;60.33;101843.94;10614128;27;20042;-69
2023/05/12 01:20:58;;;;;;;3.80;2.80;;;;;;;9.83;60.63;101848.84;10611823;28;20047;-69
2023/05/12 01:26:07;;;;;;;3.97;2.90;;;;;;;9.82;60.74;101849.94;10617675;28;20054;-70
2023/05/12 01:31:11;;;;;;;3.15;2.65;;;;;;;9.79;61.44;101850.44;10647709;28;20051;-69
2023/05/12 01:36:14;;;;;;;7.93;3.30;;;;;;;9.76;61.12;101856.41;10610207;28;20111;-69
2023/05/12 01:41:41;;;;;;;7.03;3.20;;;;;;;9.68;61.86;101858.47;10629018;28;20051;-69
2023/05/12 01:46:44;;;;;;;3.13;2.80;;;;;;;9.70;62.48;101860.13;10609847;28;20552;-68
2023/05/12 01:51:52;;;;;;;6.55;3.33;;;;;;;9.76;62.75;101854.50;10632750;28;20054;-68
2023/05/12 01:57:01;;;;;;;5.70;3.05;;;;;;;9.86;62.55;101865.63;10616967;28;20051;-68
2023/05/12 02:02:03;;;;;;;3.58;2.60;;;;;;;9.89;62.01;101853.34;10633612;28;20038;-68
2023/05/12 02:07:07;;;;;;;6.43;3.30;;;;;;;10.03;61.17;101864.84;10646236;28;20054;-68
2023/05/12 02:12:09;;;;;;;7.32;3.30;;;;;;;10.12;61.39;101866.09;10651050;28;20039;-68
2023/05/12 02:17:12;;;;;;;4.38;2.97;;;;;;;10.27;61.19;101859.00;10632700;28;20035;-68
2023/05/12 02:22:15;;;;;;;6.32;3.35;;;;;;;10.37;61.95;101855.56;10626946;27;20050;-68
2023/05/12 02:27:18;;;;;;;5.15;3.08;;;;;;;10.60;61.71;101851.00;10619943;27;20047;-68
2023/05/12 02:32:21;;;;;;;4.38;3.22;;;;;;;10.75;61.19;101859.44;10640008;27;20515;-68
2023/05/12 02:37:23;;;;;;;5.88;3.30;;;;;;;10.90;61.37;101858.81;10640859;27;20039;-68
2023/05/12 02:42:29;;;;;;;4.35;3.13;;;;;;;11.27;61.28;101864.53;10624234;27;20046;-68
2023/05/12 02:47:32;;;;;;;4.90;3.08;;;;;;;11.58;60.23;101860.22;10658593;27;20043;-68
2023/05/12 02:52:34;;;;;;;3.42;3.10;;;;;;;11.98;59.52;101859.88;10621046;27;20054;-68
2023/05/12 02:57:37;;;;;;;6.57;2.90;;;;;;;12.29;58.99;101861.78;10639133;27;20389;-67
2023/05/12 03:02:39;;;;;;;5.85;3.00;;;;;;;12.62;57.43;101857.06;10657658;27;20039;-67
2023/05/12 03:07:42;;;;;;;6.18;3.05;;;;;;;13.02;57.06;101856.50;10622682;27;20035;-67
2023/05/12 03:12:44;;;;;;;5.53;3.50;;;;;;;13.25;56.30;101856.06;10620415;27;20042;-68
2023/05/12 03:17:46;;;;;;;5.97;3.50;;;;;;;13.60;55.32;101850.94;10637952;27;20031;-67
2023/05/12 03:22:54;;;;;;;4.32;3.45;;;;;;;13.93;54.43;101857.91;10638593;27;20054;-68
2023/05/12 03:27:56;;;;;;;4.18;2.90;;;;;;;14.22;53.76;101847.97;10638950;27;20047;-67
2023/05/12 03:32:58;;;;;;;9.23;3.63;;;;;;;14.54;52.79;101856.00;10636624;27;20047;-67
2023/05/12 03:38:01;;;;;;;6.78;3.60;;;;;;;14.59;52.90;101853.25;10608530;27;20414;-68
2023/05/12 03:43:04;;;;;;;7.32;3.47;;;;;;;14.83;52.07;101858.19;10632268;27;20532;-68
2023/05/12 03:48:06;;;;;;;4.78;3.65;;;;;;;15.12;51.27;101856.44;10633712;27;20413;-69
2023/05/12 03:53:08;;;;;;;7.63;3.17;;;;;;;15.45;50.90;101862.41;10629275;27;20050;-68
2023/05/12 03:58:11;;;;;;;5.65;3.30;;;;;;;15.63;49.96;101859.00;10653584;27;20050;-68
2023/05/12 04:03:13;;;;;;;5.50;3.35;;;;;;;15.92;49.69;101861.84;10616838;27;20031;-68
2023/05/12 04:08:15;;;;;;;4.28;3.20;;;;;;;16.47;48.18;101862.53;10633634;27;20382;-68
2023/05/12 04:13:17;;;;;;;6.53;3.30;;;;;;;16.56;47.76;101861.63;10614522;27;20046;-68
2023/05/12 04:18:20;;;;;;;5.65;3.58;;;;;;;16.87;47.36;101864.13;10628256;27;20038;-68
2023/05/12 04:23:22;;;;;;;6.65;3.28;;;;;;;16.99;46.41;101866.47;10645941;27;20520;-68
2023/05/12 04:28:25;;;;;;;6.57;3.35;;;;;;;17.03;45.67;101871.16;10636367;27;20044;-68
2023/05/12 04:33:28;;;;;;;5.90;3.38;;;;;;;17.52;45.15;101866.38;10652655;27;20058;-68
2023/05/12 04:38:31;;;;;;;5.03;3.25;;;;;;;17.19;44.97;101871.81;10628862;27;20047;-68
2023/05/12 04:43:33;;;;;;;6.03;3.25;;;;;;;17.16;45.44;101875.13;10634144;27;20157;-68
2023/05/12 04:48:40;;;;;;;5.10;3.10;;;;;;;17.91;43.19;101880.84;10631578;27;20047;-68
2023/05/12 04:53:42;;;;;;;11.55;2.95;;;;;;;18.01;44.02;101886.22;10617767;27;20035;-71
2023/05/12 04:58:45;;;;;;;6.25;2.92;;;;;;;18.35;43.08;101880.41;10636077;27;20531;-71
2023/05/12 05:03:47;;;;;;;3.88;2.75;;;;;;;18.14;42.84;101881.88;10653050;27;20049;-72
2023/05/12 05:08:50;;;;;;;2.85;2.53;;;;;;;18.12;42.73;101894.44;10647248;27;20039;-72
2023/05/12 05:13:53;;;;;;;5.30;2.60;;;;;;;18.07;42.23;101884.22;10597070;27;20035;-71
2023/05/12 05:18:56;;;;;;;5.10;3.17;;;;;;;18.55;41.15;101895.91;10596925;27;20032;-71
2023/05/12 05:23:59;;;;;;;3.42;2.60;;;;;;;19.25;40.72;101897.72;10625345;27;20039;-72
2023/05/12 05:29:01;;;;;;;3.40;2.70;;;;;;;19.16;40.14;101896.78;10612901;27;20036;-71
2023/05/12 05:34:04;;;;;;;3.75;2.65;;;;;;;19.47;40.32;101897.81;10639338;27;20039;-72
2023/05/12 05:39:09;;;;;;;5.53;2.80;;;;;;;19.77;39.26;101896.34;10613853;27;20039;-71
2023/05/12 05:44:11;;;;;;;2.72;2.50;;;;;;;19.77;39.13;101899.13;10652056;27;20042;-71
2023/05/12 05:49:13;;;;;;;4.38;2.90;;;;;;;20.04;38.41;101895.47;10644128;27;20031;-70
2023/05/12 05:54:16;;;;;;;3.92;2.78;;;;;;;20.55;37.48;101891.44;10630887;27;20042;-71
2023/05/12 05:59:20;;;;;;;4.88;3.13;;;;;;;20.89;36.68;101901.16;10623517;27;20046;-69
2023/05/12 06:04:22;;;;;;;5.63;2.80;;;;;;;21.14;36.47;101899.63;10643488;27;20540;-70
2023/05/12 06:09:24;;;;;;;5.50;2.83;;;;;;;21.42;35.67;101905.84;10642605;27;20049;-69
2023/05/12 06:14:26;;;;;;;5.43;2.80;;;;;;;21.71;35.04;101899.69;10660973;27;20046;-70
2023/05/12 06:19:30;;;;;;;9.05;2.78;;;;;;;21.59;34.37;101897.53;10641358;27;20556;-69
2023/05/12 06:24:32;;;;;;;4.85;2.70;;;;;;;21.66;34.11;101900.66;10653694;27;20051;-67
2023/05/12 06:29:35;;;;;;;6.72;2.90;;;;;;;21.70;34.33;101901.66;10630008;27;20508;-69
2023/05/12 06:34:37;;;;;;;7.32;3.10;;;;;;;22.02;33.46;101903.16;10656787;27;20069;-69
2023/05/12 06:39:39;;;;;;;7.05;2.42;;;;;;;22.08;34.48;101898.28;10639903;27;20047;-69
2023/05/12 06:44:41;;;;;;;2.90;2.38;;;;;;;22.30;33.71;101902.88;10643488;27;20043;-71
2023/05/12 06:49:43;;;;;;;3.20;2.50;;;;;;;22.74;32.50;101899.69;10616782;28;20039;-70
2023/05/12 06:54:50;;;;;;;7.40;2.95;;;;;;;22.45;33.25;101908.78;10582169;28;20043;-72
2023/05/12 06:59:54;;;;;;;;;;;;;;;22.98;32.01;101906.72;10630266;27;20477;-72
2023/05/12 07:04:56;;;;;;;3.47;2.50;;;;;;;22.98;32.56;101913.13;10632846;27;19919;-72
2023/05/12 07:09:58;;;;;;;4.13;2.45;;;;;;;23.16;32.26;101920.31;10657005;27;20039;-71
2023/05/12 07:15:00;;;;;;;7.80;3.15;;;;;;;23.36;30.94;101915.94;10657269;27;20043;-72
2023/05/12 07:20:04;;;;;;;3.45;2.88;;;;;;;23.33;31.83;101915.78;10653426;27;20451;-72
2023/05/12 07:25:07;;;;;;;2.97;2.67;;;;;;;23.75;31.66;101920.34;10657949;27;20046;-72
2023/05/12 07:30:10;;;;;;;4.18;2.90;;;;;;;23.63;31.41;101925.88;10636956;27;20094;-72
2023/05/12 07:35:12;;;;;;;4.88;2.78;;;;;;;23.38;30.98;101924.00;10629240;27;20043;-72
2023/05/12 07:40:14;;;;;;;6.78;3.10;;;;;;;22.98;31.62;101915.94;10645791;27;20069;-72
2023/05/12 07:45:21;;;;;;;6.70;2.60;;;;;;;23.01;31.57;101915.25;10638046;27;20505;-72
2023/05/12 07:50:24;;;;;;;8.65;3.67;;;;;;;23.45;31.22;101922.34;10639525;27;20035;-74
2023/05/12 07:55:26;;;;;;;4.38;2.45;;;;;;;24.08;30.66;101911.22;10629202;27;20035;-73
2023/05/12 08:00:28;;;;;;;6.07;3.05;;;;;;;24.38;30.01;101917.59;10621569;27;20568;-73
2023/05/12 08:05:31;;;;;;;3.67;2.70;;;;;;;24.51;28.86;101918.47;10638227;27;20044;-73
2023/05/12 08:10:33;;;;;;;6.10;2.72;;;;;;;24.83;28.72;101902.78;10637457;27;20043;-72
2023/05/12 08:15:35;;;;;;;6.35;2.63;;;;;;;24.57;28.83;101906.69;10638185;27;20480;-71
2023/05/12 08:20:37;;;;;;;3.10;2.70;;;;;;;24.28;28.41;101901.97;10635059;27;20042;-71
2023/05/12 08:25:40;;;;;;;6.40;3.60;;;;;;;24.34;29.53;101903.44;10648931;27;20039;-71
2023/05/12 08:30:43;;;;;;;5.22;2.90;;;;;;;24.44;28.92;101896.56;10607996;28;20047;-72
2023/05/12 08:35:46;;;;;;;5.38;2.65;;;;;;;24.41;27.88;101900.06;10601352;28;20051;-72
2023/05/12 08:41:17;;;;;;;4.63;2.53;;;;;;;24.49;28.96;101896.38;10612986;28;20044;-71
2023/05/12 08:46:20;;;;;;;3.40;2.90;;;;;;;24.75;28.40;101890.47;10605672;27;20051;-70
2023/05/12 08:51:23;;;;;;;6.47;2.70;;;;;;;24.95;27.34;101892.38;10613451;28;20409;-70
2023/05/12 08:56:25;;;;;;;6.38;3.10;;;;;;;24.75;27.85;101903.69;10599026;27;20056;-69
2023/05/12 09:01:29;;;;;;;8.18;3.00;;;;;;;24.76;28.18;101894.09;10593579;27;20129;-68
2023/05/12 09:06:32;;;;;;;5.07;2.78;;;;;;;24.70;27.72;101896.31;10611012;27;20036;-69
2023/05/12 09:11:34;;;;;;;2.65;2.20;;;;;;;24.61;27.73;101887.16;10622365;27;20039;-68
2023/05/12 09:16:40;;;;;;;6.40;2.47;;;;;;;24.11;27.07;101896.50;10635376;27;20058;-70
2023/05/12 09:21:42;;;;;;;5.22;2.65;;;;;;;23.31;28.22;101890.94;10611057;28;20048;-70
2023/05/12 09:26:46;;;;;;;5.47;2.45;;;;;;;22.43;28.20;101891.50;10612051;28;20046;-68
2023/05/12 09:31:50;;;;;;;2.85;2.25;;;;;;;21.48;29.03;101890.59;10618371;28;20193;-70
2023/05/12 09:37:00;;;;;;;7.00;2.70;;;;;;;20.87;30.41;101886.72;10589807;28;20409;-68
2023/05/12 09:42:02;;;;;;;5.32;2.35;;;;;;;20.69;29.80;101877.44;10586048;28;20502;-69
2023/05/12 09:47:09;;;;;;;2.72;2.22;;;;;;;20.66;29.17;101875.28;10600599;27;20047;-70
2023/05/12 09:52:11;;;;;;;4.00;2.05;;;;;;;20.51;28.85;101875.69;10604554;28;20046;-69
2023/05/12 09:57:15;;;;;;;3.40;2.25;;;;;;;20.34;29.38;101877.19;10599736;28;20055;-70
2023/05/12 10:02:18;;;;;;;4.20;1.95;;;;;;;20.38;28.32;101880.97;10606369;27;20061;-71
2023/05/12 10:07:22;;;;;;;4.93;2.50;;;;;;;20.04;28.41;101869.56;10634620;27;20063;-71
2023/05/12 10:12:24;;;;;;;6.03;2.33;;;;;;;19.79;28.12;101884.91;10565423;28;20035;-70
2023/05/12 10:17:27;;;;;;;9.57;2.28;;;;;;;19.58;28.37;101877.00;10610327;28;20043;-70
2023/05/12 10:22:38;;;;;;;4.55;2.33;;;;;;;19.42;28.39;101870.06;10574637;28;20047;-70
2023/05/12 10:27:41;;;;;;;6.30;2.53;;;;;;;19.25;28.84;101883.78;10613471;27;20043;-70
2023/05/12 10:32:43;;;;;;;4.90;2.40;;;;;;;19.31;29.17;101885.34;10666897;27;20412;-70
2023/05/12 10:37:46;;;;;;;3.88;1.92;;;;;;;19.21;29.65;101878.03;10666237;27;20031;-70
2023/05/12 10:42:50;;;;;;;7.30;3.17;;;;;;;19.26;29.64;101883.50;10701476;27;20049;-70
2023/05/12 10:48:03;;;;;;;5.15;2.60;;;;;;;19.19;29.80;101876.69;10701030;27;20039;-69
2023/05/12 10:53:10;;;;;;;9.07;2.45;;;;;;;19.09;29.93;101882.44;10697596;27;20050;-69
2023/05/12 10:58:13;;;;;;;5.93;2.40;;;;;;;18.98;29.42;101873.50;10655117;27;20043;-69
2023/05/12 11:03:17;;;;;;;3.95;2.17;;;;;;;18.77;29.50;101881.41;10622796;27;20039;-71
2023/05/12 11:08:19;;;;;;;5.03;2.50;;;;;;;18.73;29.71;101883.13;10622172;27;20062;-70
2023/05/12 11:13:21;;;;;;;10.05;2.80;;;;;;;18.75;29.75;101875.31;10623846;27;20406;-71
2023/05/12 11:18:23;;;;;;;8.32;2.10;;;;;;;18.61;29.60;101885.56;10614605;28;20043;-71
2023/05/12 11:23:28;;;;;;;6.28;2.35;;;;;;;18.49;30.05;101879.66;10596244;28;20047;-70
2023/05/12 11:28:40;;;;;;;5.35;2.45;;;;;;;18.42;30.35;101873.66;10599597;27;20055;-71
2023/05/12 11:33:42;;;;;;;4.00;1.98;;;;;;;18.24;30.29;101873.41;10596261;28;20050;-70
2023/05/12 11:38:49;;;;;;;4.30;2.70;;;;;;;18.31;30.35;101873.81;10613917;28;20043;-71
2023/05/12 11:43:51;;;;;;;4.22;2.22;;;;;;;18.12;31.37;101867.47;10617136;27;20040;-72
2023/05/12 11:48:58;;;;;;;5.68;2.92;;;;;;;18.05;31.21;101864.25;10594899;28;20038;-71
2023/05/12 11:54:00;;;;;;;6.95;2.78;;;;;;;18.13;31.70;101869.13;10628755;27;20047;-71
2023/05/12 11:59:02;;;;;;;5.32;3.13;;;;;;;18.18;31.53;101869.03;10637657;27;20038;-71
2023/05/12 12:04:05;;;;;;;9.95;2.60;;;;;;;18.24;31.83;101862.28;10650913;27;20058;-71
2023/05/12 12:09:07;;;;;;;7.28;3.38;;;;;;;18.17;32.24;101872.13;10641006;27;20035;-70
2023/05/12 12:14:09;;;;;;;6.07;3.53;;;;;;;18.10;32.42;101858.63;10635080;27;20449;-70
2023/05/12 12:19:12;;;;;;;4.30;2.90;;;;;;;17.99;32.11;101855.16;10664259;27;20043;-71
2023/05/12 12:24:14;;;;;;;8.30;3.70;;;;;;;17.82;32.59;101859.59;10593694;27;20039;-71
2023/05/12 12:29:17;;;;;;;4.60;2.60;;;;;;;17.67;33.10;101857.84;10639981;27;20038;-71
2023/05/12 12:34:19;;;;;;;7.22;4.43;;;;;;;17.65;33.21;101851.75;10653490;27;20309;-69
2023/05/12 12:39:22;;;;;;;9.90;4.10;;;;;;;17.55;32.99;101849.97;10651995;27;20091;-71
2023/05/12 12:44:24;;;;;;;4.30;3.90;;;;;;;17.56;33.49;101857.16;10619597;27;20066;-70
2023/05/12 12:49:26;;;;;;;6.20;3.47;;;;;;;17.64;33.41;101858.44;10628828;27;20035;-70
2023/05/12 12:54:28;;;;;;;5.85;3.42;;;;;;;17.61;33.21;101848.75;10653353;27;20043;-70
2023/05/12 12:59:31;;;;;;;6.80;4.68;;;;;;;17.59;33.54;101856.56;10649992;27;20440;-70
2023/05/12 13:04:33;;;;;;;9.55;6.05;;;;;;;17.42;33.77;101853.47;10617522;27;20528;-69
2023/05/12 13:09:35;;;;;;;10.73;6.53;;;;;;;17.32;34.11;101846.09;10623944;27;20038;-70
2023/05/12 13:14:37;;;;;;;11.43;6.82;;;;;;;17.27;33.94;101845.34;10616934;27;20043;-70
2023/05/12 13:19:39;;;;;;;14.07;7.35;;;;;;;17.30;34.48;101836.41;10657459;27;20050;-71
2023/05/12 13:24:41;;;;;;;10.55;6.70;;;;;;;17.36;34.68;101843.56;10676948;27;20040;-70
2023/05/12 13:29:46;;;;;;;13.13;7.20;;;;;;;17.43;34.68;101832.91;10695474;27;20050;-71
2023/05/12 13:34:48;;;;;;;8.90;6.28;;;;;;;17.25;34.45;101837.31;10670966;27;20046;-70
2023/05/12 13:39:50;;;;;;;9.15;6.22;;;;;;;17.17;35.02;101832.41;10609846;28;20039;-71
2023/05/12 13:44:52;;;;;;;9.48;6.53;;;;;;;17.10;35.10;101821.69;10591854;28;20494;-71
2023/05/12 13:49:55;;;;;;;5.70;4.00;;;;;;;17.17;35.09;101833.22;10609590;28;20032;-71
2023/05/12 13:54:57;;;;;;;5.22;4.32;;;;;;;17.16;35.29;101828.81;10609803;28;20043;-71
2023/05/12 14:00:00;;;;;;;7.50;5.15;;;;;;;17.18;35.31;101829.38;10633950;28;20579;-71
2023/05/12 14:05:03;;;;;;;6.40;3.13;;;;;;;17.17;35.36;101818.53;10607514;28;20040;-71
2023/05/12 14:10:05;;;;;;;5.93;3.28;;;;;;;17.24;35.35;101815.41;10608832;28;20432;-71
2023/05/12 14:15:09;;;;;;;7.60;3.60;;;;;;;17.23;34.73;101813.78;10636954;27;20051;-71
2023/05/12 14:20:11;;;;;;;7.28;3.10;;;;;;;17.22;34.86;101810.19;10624641;27;20035;-71
2023/05/12 14:25:14;;;;;;;7.50;2.95;;;;;;;17.41;34.60;101808.25;10633900;27;20035;-71
2023/05/12 14:30:17;;;;;;;6.93;3.33;;;;;;;17.50;34.08;101802.84;10606422;27;20043;-71
2023/05/12 14:35:19;;;;;;;8.13;2.80;;;;;;;17.47;33.48;101814.53;10613206;27;20055;-70
2023/05/12 14:40:22;;;;;;;4.72;2.60;;;;;;;17.54;33.37;101806.69;10629111;27;20040;-70
2023/05/12 14:45:53;;;;;;;6.40;2.55;;;;;;;17.53;33.50;101805.03;10618581;27;20036;-71
2023/05/12 14:51:02;;;;;;;3.85;2.45;;;;;;;17.37;33.80;101809.97;10655278;27;20039;-71
2023/05/12 14:56:04;;;;;;;7.68;2.70;;;;;;;17.22;33.68;101812.94;10660937;27;20062;-72
2023/05/12 15:01:07;;;;;;;4.40;2.00;;;;;;;17.17;34.28;101811.03;10613710;27;20137;-72
2023/05/12 15:06:10;;;;;;;6.60;2.50;;;;;;;17.17;34.26;101801.91;10658187;27;20039;-71
2023/05/12 15:11:12;;;;;;;4.50;2.55;;;;;;;17.19;34.48;101810.78;10657565;27;20050;-72
2023/05/12 15:16:15;;;;;;;7.53;2.50;;;;;;;17.17;34.29;101802.72;10616718;27;20053;-72
2023/05/12 15:21:17;;;;;;;5.40;2.58;;;;;;;17.20;34.51;101806.06;10631954;27;20103;-73
2023/05/12 15:26:20;;;;;;;7.65;2.40;;;;;;;17.13;34.60;101804.44;10639112;27;20091;-73
2023/05/12 15:31:22;;;;;;;7.50;2.33;;;;;;;17.11;34.47;101809.47;10625790;27;20417;-71
2023/05/12 15:36:24;;;;;;;5.45;2.72;;;;;;;17.20;34.64;101800.50;10641369;27;20039;-70
2023/05/12 15:41:27;;;;;;;7.78;2.80;;;;;;;17.10;34.90;101805.03;10626101;27;20035;-72
2023/05/12 15:46:30;;;;;;;2.67;2.17;;;;;;;17.03;35.18;101803.78;10630279;27;20043;-72
2023/05/12 15:51:32;;;;;;;5.10;2.20;;;;;;;16.84;35.71;101792.63;10635591;27;20046;-72
2023/05/12 15:56:35;;;;;;;5.63;2.00;;;;;;;16.75;35.64;101794.38;10655087;27;20088;-71
2023/05/12 16:01:37;;;;;;;9.38;3.13;;;;;;;16.68;36.23;101802.22;10671716;27;20443;-71
2023/05/12 16:06:39;;;;;;;5.22;2.63;;;;;;;16.62;36.20;101797.81;10657644;27;20032;-71
2023/05/12 16:11:43;;;;;;;7.90;2.65;;;;;;;16.47;36.87;101794.09;10620088;27;20051;-72
2023/05/12 16:16:47;;;;;;;5.95;2.15;;;;;;;16.40;37.33;101798.31;10624671;27;20047;-71
2023/05/12 16:21:52;;;;;;;3.58;2.10;;;;;;;16.44;37.87;101796.63;10623844;27;20047;-70
2023/05/12 16:26:55;;;;;;;5.40;2.67;;;;;;;16.34;38.48;101791.19;10639370;27;20039;-70
2023/05/12 16:31:57;;;;;;;3.83;2.30;;;;;;;16.20;39.03;101791.03;10593840;27;20497;-70
2023/05/12 16:37:01;;;;;;;6.07;2.17;;;;;;;16.14;39.27;101784.72;10650428;27;20470;-71
2023/05/12 16:42:04;;;;;;;4.10;2.53;;;;;;;16.02;39.43;101789.81;10633455;27;20035;-72
2023/05/12 16:47:14;;;;;;;4.13;2.58;;;;;;;15.93;39.58;101797.91;10599146;27;20046;-73
2023/05/12 16:52:16;;;;;;;5.70;2.55;;;;;;;15.84;39.61;101791.34;10651586;27;20222;-73
2023/05/12 16:57:19;;;;;;;3.63;2.70;;;;;;;15.73;40.35;101786.97;10615176;27;20501;-73
2023/05/12 17:02:21;;;;;;;5.95;2.70;;;;;;;15.63;40.67;101781.53;10650820;27;20035;-73
2023/05/12 17:07:24;;;;;;;4.32;2.63;;;;;;;15.48;40.89;101781.59;10651138;27;20054;-72
2023/05/12 17:12:26;;;;;;;7.78;2.65;;;;;;;15.32;41.42;101787.22;10645996;27;20054;-72
2023/05/12 17:17:28;;;;;;;4.07;2.63;;;;;;;15.13;41.82;101782.63;10612060;28;20425;-72
2023/05/12 17:22:31;;;;;;;5.20;2.60;;;;;;;14.95;41.72;101784.09;10607101;27;20487;-72
2023/05/12 17:27:33;;;;;;;6.13;3.20;;;;;;;14.81;42.97;101781.09;10691533;27;20034;-71
2023/05/12 17:32:35;;;;;;;4.13;2.78;;;;;;;14.68;43.22;101782.50;10623341;28;20035;-71
2023/05/12 17:37:38;;;;;;;5.43;2.92;;;;;;;14.62;43.08;101775.34;10620539;28;20066;-71
2023/05/12 17:42:40;;;;;;;4.60;3.10;;;;;;;14.50;43.68;101785.88;10652735;28;20043;-71
2023/05/12 17:47:43;;;;;;;4.03;2.65;;;;;;;14.38;43.74;101788.88;10645829;28;20512;-73
2023/05/12 17:52:46;;;;;;;6.28;3.00;;;;;;;14.34;43.47;101786.97;10637956;27;20051;-71
2023/05/12 17:57:48;;;;;;;4.50;3.40;;;;;;;14.25;44.10;101788.66;10664354;27;20046;-71
2023/05/12 18:02:50;;;;;;;7.75;3.75;;;;;;;14.15;44.09;101790.31;10631314;27;20049;-72
2023/05/12 18:07:52;;;;;;;3.63;3.03;;;;;;;14.07;44.68;101792.81;10618969;27;20086;-72
2023/05/12 18:12:55;;;;;;;4.82;3.22;;;;;;;13.96;44.71;101785.63;10645216;27;20047;-71
2023/05/12 18:17:57;;;;;;;6.07;3.08;;;;;;;13.87;45.51;101794.44;10640615;27;20043;-71
2023/05/12 18:23:00;;;;;;;3.05;2.70;;;;;;;13.74;45.95;101795.00;10632319;27;20046;-72
2023/05/12 18:28:02;;;;;;;5.10;2.97;;;;;;;13.63;46.25;101789.72;10621328;27;20053;-72
2023/05/12 18:33:07;;;;;;;4.72;2.75;;;;;;;13.56;45.95;101781.72;10651157;27;20040;-72
2023/05/12 18:38:10;;;;;;;8.32;4.28;;;;;;;13.45;46.25;101778.13;10627542;27;20031;-71
2023/05/12 18:43:12;;;;;;;7.72;3.40;;;;;;;13.39;46.82;101789.41;10645115;27;20663;-71
2023/05/12 18:48:14;;;;;;;7.95;3.30;;;;;;;13.30;47.16;101789.09;10624512;27;20716;-71
2023/05/12 18:53:17;;;;;;;4.07;3.03;;;;;;;13.20;48.14;101794.59;10617163;27;20058;-71
2023/05/12 18:58:19;;;;;;;5.65;2.58;;;;;;;13.13;48.06;101785.69;10621359;27;20039;-71
2023/05/12 19:03:21;;;;;;;7.50;3.10;;;;;;;13.06;48.19;101796.16;10628886;27;20032;-71
2023/05/12 19:08:23;;;;;;;4.55;2.50;;;;;;;12.91;49.02;101797.75;10647175;27;20039;-71
2023/05/12 19:13:26;;;;;;;3.00;2.65;;;;;;;12.77;49.56;101796.56;10638661;27;20042;-70
2023/05/12 19:18:28;;;;;;;4.65;2.60;;;;;;;12.67;50.22;101800.13;10610721;27;20038;-70
2023/05/12 19:23:30;;;;;;;5.15;3.03;;;;;;;12.60;50.71;101801.44;10619440;27;20047;-70
2023/05/12 19:28:32;;;;;;;3.35;2.45;;;;;;;12.52;50.97;101782.69;10627989;27;20530;-70
2023/05/12 19:33:34;;;;;;;5.30;2.65;;;;;;;12.46;51.26;101786.47;10612379;27;20043;-73
2023/05/12 19:38:36;;;;;;;5.70;2.65;;;;;;;12.43;51.10;101787.00;10577723;27;20035;-72
2023/05/12 19:43:39;;;;;;;9.07;4.30;;;;;;;12.34;51.81;101778.44;10588388;27;20505;-70
2023/05/12 19:48:42;;;;;;;8.82;3.75;;;;;;;12.35;51.67;101782.84;10586553;27;20055;-73
2023/05/12 19:53:44;;;;;;;6.28;2.88;;;;;;;12.43;51.75;101778.75;10585376;28;20043;-70
2023/05/12 19:58:46;;;;;;;5.38;2.83;;;;;;;12.45;51.92;101782.06;10579457;28;20047;-69
2023/05/12 20:03:48;;;;;;;4.60;3.95;;;;;;;12.49;51.21;101774.91;10577778;28;20047;-69
2023/05/12 20:08:51;;;;;;;9.13;4.05;;;;;;;12.47;51.28;101777.94;10571134;27;20036;-69
2023/05/12 20:13:53;;;;;;;7.80;4.00;;;;;;;12.43;51.71;101784.25;10547998;28;20036;-69
2023/05/12 20:18:55;;;;;;;4.45;3.67;;;;;;;12.41;52.30;101781.78;10582064;28;20047;-69
2023/05/12 20:23:58;;;;;;;5.13;3.70;;;;;;;12.32;52.14;101784.19;10573027;27;20051;-69
2023/05/12 20:29:03;;;;;;;4.70;3.58;;;;;;;12.23;52.41;101785.78;10592026;27;20054;-68
2023/05/12 20:34:05;;;;;;;7.35;3.20;;;;;;;12.20;52.35;101783.56;10593884;27;20034;-69
2023/05/12 20:39:08;;;;;;;5.20;3.45;;;;;;;12.13;52.93;101784.84;10624830;27;20047;-70
2023/05/12 20:44:14;;;;;;;8.27;3.20;;;;;;;11.99;53.56;101790.00;10637218;27;20443;-69
2023/05/12 20:49:17;;;;;;;6.35;3.22;;;;;;;11.93;53.32;101796.53;10617985;27;20039;-72
2023/05/12 20:54:19;;;;;;;11.13;3.60;;;;;;;11.80;53.70;101785.97;10619282;27;20042;-71
2023/05/12 20:59:23;;;;;;;4.80;3.25;;;;;;;11.81;54.44;101787.66;10649488;27;20669;-71
2023/05/12 21:04:25;;;;;;;6.38;3.40;;;;;;;11.81;54.96;101795.91;10638912;27;20035;-70
2023/05/12 21:09:27;;;;;;;4.00;2.90;;;;;;;11.69;54.29;101796.03;10631372;27;20035;-71
2023/05/12 21:14:39;;;;;;;5.95;3.17;;;;;;;11.59;55.12;101791.22;10634057;27;20039;-71
2023/05/12 21:19:42;;;;;;;5.93;2.97;;;;;;;11.61;54.95;101782.72;10623029;27;20028;-71
2023/05/12 21:24:47;;;;;;;4.57;3.08;;;;;;;11.60;55.93;101787.41;10563391;27;20043;-70
2023/05/12 21:29:55;;;;;;;6.53;3.17;;;;;;;11.64;55.03;101791.31;10645512;27;20047;-69
2023/05/12 21:34:58;;;;;;;6.45;3.25;;;;;;;11.58;55.18;101797.81;10642398;27;20050;-69
2023/05/12 21:40:00;;;;;;;5.10;3.30;;;;;;;11.53;55.34;101800.53;10652316;28;20441;-69
2023/05/12 21:45:02;;;;;;;6.43;3.22;;;;;;;11.63;55.59;101800.66;10617974;27;20042;-70
2023/05/12 21:50:05;;;;;;;3.53;2.85;;;;;;;11.63;56.28;101808.06;10635056;28;20050;-70
2023/05/12 21:55:07;;;;;;;3.90;2.67;;;;;;;11.70;55.62;101798.50;10649921;28;20042;-70
2023/05/12 22:00:11;;;;;;;4.25;2.70;;;;;;;11.72;56.21;101798.25;10640768;28;20039;-70
2023/05/12 22:05:14;;;;;;;5.25;2.70;;;;;;;11.69;57.04;101801.53;10652614;28;20589;-69
2023/05/12 22:10:16;;;;;;;5.00;2.83;;;;;;;11.61;56.73;101808.28;10631071;28;20050;-69
2023/05/12 22:15:19;;;;;;;4.10;2.80;;;;;;;11.63;56.95;101806.16;10634172;28;20050;-69
2023/05/12 22:20:22;;;;;;;4.72;2.70;;;;;;;11.56;57.20;101811.00;10646659;28;20505;-69
2023/05/12 22:25:25;;;;;;;4.57;3.10;;;;;;;11.48;57.34;101811.47;10637056;28;20049;-70
2023/05/12 22:30:27;;;;;;;5.90;3.40;;;;;;;11.39;57.94;101810.25;10645859;28;20054;-70
2023/05/12 22:35:29;;;;;;;6.00;3.38;;;;;;;11.26;58.94;101808.75;10639379;28;20047;-70
2023/05/12 22:40:35;;;;;;;9.18;3.97;;;;;;;11.22;59.17;101809.53;10623620;27;20051;-70
2023/05/12 22:45:37;;;;;;;7.53;3.45;;;;;;;11.17;59.30;101804.81;10660692;27;20039;-70
2023/05/12 22:50:39;;;;;;;9.30;5.22;;;;;;;11.02;60.62;101807.34;10623498;27;20417;-69
2023/05/12 22:55:42;;;;;;;10.25;5.80;;;;;;;10.96;60.70;101811.97;10637882;27;20054;-70
2023/05/12 23:00:44;;;;;;;11.05;4.93;;;;;;;10.85;61.35;101807.41;10633368;27;20551;-70
2023/05/12 23:05:46;;;;;;;11.07;4.60;;;;;;;10.76;61.91;101808.94;10644618;27;20047;-70
2023/05/12 23:10:49;;;;;;;5.32;3.33;;;;;;;10.79;62.03;101800.22;10624826;27;20069;-69
2023/05/12 23:15:51;;;;;;;5.78;3.65;;;;;;;10.76;62.46;101806.19;10601009;27;20046;-70